sensor_id;sensor_type;location;lat;lon;timestamp;P1;durP1;ratioP1;P2;durP2;ratioP2
51566;SDS011;37657;53.182;5.638;2024-01-30T00:02:21;23.50;;;20.33;;
51566;SDS011;37657;53.182;5.638;2024-01-30T00:04:46;21.55;;;19.13;;
51566;SDS011;37657;53.182;5.638;2024-01-30T00:07:12;22.20;;;19.50;;
51566;SDS011;37657;53.182;5.638;2024-01-30T00:09:38;24.75;;;22.55;;
51566;SDS011;37657;53.182;5.638;2024-01-30T00:12:07;22.60;;;20.20;;
51566;SDS011;37657;53.182;5.638;2024-01-30T00:14:32;20.65;;;18.63;;
51566;SDS011;37657;53.182;5.638;2024-01-30T00:16:58;24.17;;;21.20;;
51566;SDS011;37657;53.182;5.638;2024-01-30T00:19:23;21.77;;;19.83;;
51566;SDS011;37657;53.182;5.638;2024-01-30T00:21:49;24.60;;;22.13;;
51566;SDS011;37657;53.182;5.638;2024-01-30T00:24:15;21.23;;;19.05;;
51566;SDS011;37657;53.182;5.638;2024-01-30T00:26:40;25.48;;;21.50;;
51566;SDS011;37657;53.182;5.638;2024-01-30T00:29:06;22.75;;;20.52;;
51566;SDS011;37657;53.182;5.638;2024-01-30T00:31:34;25.13;;;22.25;;
51566;SDS011;37657;53.182;5.638;2024-01-30T00:34:00;20.60;;;18.48;;
51566;SDS011;37657;53.182;5.638;2024-01-30T00:36:26;25.48;;;20.55;;
51566;SDS011;37657;53.182;5.638;2024-01-30T00:38:54;24.65;;;21.55;;
51566;SDS011;37657;53.182;5.638;2024-01-30T00:41:20;22.48;;;20.33;;
51566;SDS011;37657;53.182;5.638;2024-01-30T00:43:45;23.55;;;21.08;;
51566;SDS011;37657;53.182;5.638;2024-01-30T00:46:11;23.00;;;20.90;;
51566;SDS011;37657;53.182;5.638;2024-01-30T00:48:37;24.33;;;21.88;;
51566;SDS011;37657;53.182;5.638;2024-01-30T00:51:02;23.38;;;20.92;;
51566;SDS011;37657;53.182;5.638;2024-01-30T00:53:28;21.63;;;19.25;;
51566;SDS011;37657;53.182;5.638;2024-01-30T00:55:53;22.58;;;20.30;;
51566;SDS011;37657;53.182;5.638;2024-01-30T00:58:19;26.70;;;23.70;;
51566;SDS011;37657;53.182;5.638;2024-01-30T01:00:45;21.98;;;19.65;;
51566;SDS011;37657;53.182;5.638;2024-01-30T01:03:10;22.05;;;19.95;;
51566;SDS011;37657;53.182;5.638;2024-01-30T01:05:36;23.77;;;21.65;;
51566;SDS011;37657;53.182;5.638;2024-01-30T01:08:01;22.35;;;20.17;;
51566;SDS011;37657;53.182;5.638;2024-01-30T01:10:27;22.85;;;20.55;;
51566;SDS011;37657;53.182;5.638;2024-01-30T01:12:53;27.75;;;25.02;;
51566;SDS011;37657;53.182;5.638;2024-01-30T01:15:19;23.45;;;21.23;;
51566;SDS011;37657;53.182;5.638;2024-01-30T01:17:44;26.23;;;22.88;;
51566;SDS011;37657;53.182;5.638;2024-01-30T01:20:10;25.55;;;23.02;;
51566;SDS011;37657;53.182;5.638;2024-01-30T01:22:37;25.27;;;22.60;;
51566;SDS011;37657;53.182;5.638;2024-01-30T01:25:03;23.73;;;20.92;;
51566;SDS011;37657;53.182;5.638;2024-01-30T01:27:32;22.50;;;19.83;;
51566;SDS011;37657;53.182;5.638;2024-01-30T01:29:59;21.60;;;19.60;;
51566;SDS011;37657;53.182;5.638;2024-01-30T01:32:25;22.13;;;20.02;;
51566;SDS011;37657;53.182;5.638;2024-01-30T01:34:51;25.50;;;21.10;;
51566;SDS011;37657;53.182;5.638;2024-01-30T01:37:16;25.20;;;20.05;;
51566;SDS011;37657;53.182;5.638;2024-01-30T01:39:42;22.73;;;20.33;;
51566;SDS011;37657;53.182;5.638;2024-01-30T01:42:07;22.05;;;19.95;;
51566;SDS011;37657;53.182;5.638;2024-01-30T01:44:33;22.95;;;20.70;;
51566;SDS011;37657;53.182;5.638;2024-01-30T01:46:58;26.98;;;23.40;;
51566;SDS011;37657;53.182;5.638;2024-01-30T01:49:24;24.60;;;22.02;;
51566;SDS011;37657;53.182;5.638;2024-01-30T01:51:52;23.25;;;20.58;;
51566;SDS011;37657;53.182;5.638;2024-01-30T01:54:21;23.45;;;21.17;;
51566;SDS011;37657;53.182;5.638;2024-01-30T01:56:48;26.77;;;24.08;;
51566;SDS011;37657;53.182;5.638;2024-01-30T01:59:14;26.30;;;23.70;;
51566;SDS011;37657;53.182;5.638;2024-01-30T02:01:39;27.05;;;22.98;;
51566;SDS011;37657;53.182;5.638;2024-01-30T02:04:06;28.60;;;24.30;;
51566;SDS011;37657;53.182;5.638;2024-01-30T02:06:34;25.58;;;23.27;;
51566;SDS011;37657;53.182;5.638;2024-01-30T02:09:00;25.65;;;23.15;;
51566;SDS011;37657;53.182;5.638;2024-01-30T02:11:26;25.50;;;22.90;;
51566;SDS011;37657;53.182;5.638;2024-01-30T02:13:52;27.98;;;25.27;;
51566;SDS011;37657;53.182;5.638;2024-01-30T02:16:18;24.15;;;21.90;;
51566;SDS011;37657;53.182;5.638;2024-01-30T02:18:43;23.75;;;21.38;;
51566;SDS011;37657;53.182;5.638;2024-01-30T02:21:12;24.98;;;22.63;;
51566;SDS011;37657;53.182;5.638;2024-01-30T02:23:39;24.77;;;22.40;;
51566;SDS011;37657;53.182;5.638;2024-01-30T02:26:05;26.52;;;23.70;;
51566;SDS011;37657;53.182;5.638;2024-01-30T02:28:31;23.75;;;20.38;;
51566;SDS011;37657;53.182;5.638;2024-01-30T02:30:57;26.00;;;23.33;;
51566;SDS011;37657;53.182;5.638;2024-01-30T02:33:22;29.92;;;22.77;;
51566;SDS011;37657;53.182;5.638;2024-01-30T02:35:48;25.50;;;23.10;;
51566;SDS011;37657;53.182;5.638;2024-01-30T02:38:15;23.77;;;21.40;;
51566;SDS011;37657;53.182;5.638;2024-01-30T02:40:40;31.00;;;23.40;;
51566;SDS011;37657;53.182;5.638;2024-01-30T02:43:06;25.35;;;22.00;;
51566;SDS011;37657;53.182;5.638;2024-01-30T02:45:31;24.08;;;21.60;;
51566;SDS011;37657;53.182;5.638;2024-01-30T02:47:57;24.05;;;21.65;;
51566;SDS011;37657;53.182;5.638;2024-01-30T02:50:23;22.48;;;20.15;;
51566;SDS011;37657;53.182;5.638;2024-01-30T02:52:48;23.73;;;21.08;;
51566;SDS011;37657;53.182;5.638;2024-01-30T02:55:14;23.20;;;20.85;;
51566;SDS011;37657;53.182;5.638;2024-01-30T02:57:42;30.40;;;21.63;;
51566;SDS011;37657;53.182;5.638;2024-01-30T03:00:08;25.33;;;22.25;;
51566;SDS011;37657;53.182;5.638;2024-01-30T03:02:34;26.10;;;23.52;;
51566;SDS011;37657;53.182;5.638;2024-01-30T03:05:00;22.55;;;20.50;;
51566;SDS011;37657;53.182;5.638;2024-01-30T03:07:26;28.08;;;24.95;;
51566;SDS011;37657;53.182;5.638;2024-01-30T03:09:52;24.70;;;21.90;;
51566;SDS011;37657;53.182;5.638;2024-01-30T03:12:17;22.92;;;19.33;;
51566;SDS011;37657;53.182;5.638;2024-01-30T03:14:43;22.08;;;19.85;;
51566;SDS011;37657;53.182;5.638;2024-01-30T03:17:08;23.60;;;19.67;;
51566;SDS011;37657;53.182;5.638;2024-01-30T03:19:34;20.33;;;18.40;;
51566;SDS011;37657;53.182;5.638;2024-01-30T03:21:59;20.83;;;18.98;;
51566;SDS011;37657;53.182;5.638;2024-01-30T03:24:25;23.35;;;20.17;;
51566;SDS011;37657;53.182;5.638;2024-01-30T03:26:51;25.95;;;21.20;;
51566;SDS011;37657;53.182;5.638;2024-01-30T03:29:17;20.42;;;18.50;;
51566;SDS011;37657;53.182;5.638;2024-01-30T03:31:42;22.30;;;20.02;;
51566;SDS011;37657;53.182;5.638;2024-01-30T03:34:08;26.35;;;21.77;;
51566;SDS011;37657;53.182;5.638;2024-01-30T03:36:33;35.83;;;24.25;;
51566;SDS011;37657;53.182;5.638;2024-01-30T03:38:59;28.63;;;21.98;;
51566;SDS011;37657;53.182;5.638;2024-01-30T03:41:25;21.88;;;18.90;;
51566;SDS011;37657;53.182;5.638;2024-01-30T03:43:51;22.70;;;20.35;;
51566;SDS011;37657;53.182;5.638;2024-01-30T03:46:16;20.58;;;18.52;;
51566;SDS011;37657;53.182;5.638;2024-01-30T03:48:42;24.20;;;20.80;;
51566;SDS011;37657;53.182;5.638;2024-01-30T03:51:08;26.58;;;21.02;;
51566;SDS011;37657;53.182;5.638;2024-01-30T03:53:34;26.20;;;22.65;;
51566;SDS011;37657;53.182;5.638;2024-01-30T03:56:00;24.92;;;21.45;;
51566;SDS011;37657;53.182;5.638;2024-01-30T03:58:25;19.77;;;17.70;;
51566;SDS011;37657;53.182;5.638;2024-01-30T04:00:51;24.13;;;21.77;;
51566;SDS011;37657;53.182;5.638;2024-01-30T04:03:17;26.85;;;23.85;;
51566;SDS011;37657;53.182;5.638;2024-01-30T04:05:42;23.60;;;21.15;;
51566;SDS011;37657;53.182;5.638;2024-01-30T04:08:08;20.88;;;18.67;;
51566;SDS011;37657;53.182;5.638;2024-01-30T04:10:34;23.33;;;21.02;;
51566;SDS011;37657;53.182;5.638;2024-01-30T04:13:00;20.10;;;18.27;;
51566;SDS011;37657;53.182;5.638;2024-01-30T04:15:26;27.42;;;20.17;;
51566;SDS011;37657;53.182;5.638;2024-01-30T04:17:51;24.88;;;21.33;;
51566;SDS011;37657;53.182;5.638;2024-01-30T04:20:17;22.23;;;20.17;;
51566;SDS011;37657;53.182;5.638;2024-01-30T04:22:43;28.75;;;22.23;;
51566;SDS011;37657;53.182;5.638;2024-01-30T04:25:09;21.38;;;19.15;;
51566;SDS011;37657;53.182;5.638;2024-01-30T04:27:35;27.50;;;20.35;;
51566;SDS011;37657;53.182;5.638;2024-01-30T04:30:01;20.55;;;18.15;;
51566;SDS011;37657;53.182;5.638;2024-01-30T04:32:26;20.58;;;18.52;;
51566;SDS011;37657;53.182;5.638;2024-01-30T04:34:52;22.42;;;20.08;;
51566;SDS011;37657;53.182;5.638;2024-01-30T04:37:18;23.23;;;20.83;;
51566;SDS011;37657;53.182;5.638;2024-01-30T04:39:43;20.88;;;18.63;;
51566;SDS011;37657;53.182;5.638;2024-01-30T04:42:09;20.38;;;18.42;;
51566;SDS011;37657;53.182;5.638;2024-01-30T04:44:34;21.55;;;19.30;;
51566;SDS011;37657;53.182;5.638;2024-01-30T04:47:00;21.02;;;18.95;;
51566;SDS011;37657;53.182;5.638;2024-01-30T04:49:26;24.38;;;21.20;;
51566;SDS011;37657;53.182;5.638;2024-01-30T04:51:52;26.67;;;22.42;;
51566;SDS011;37657;53.182;5.638;2024-01-30T04:54:18;22.17;;;19.70;;
51566;SDS011;37657;53.182;5.638;2024-01-30T04:56:43;22.55;;;20.23;;
51566;SDS011;37657;53.182;5.638;2024-01-30T04:59:09;27.70;;;19.55;;
51566;SDS011;37657;53.182;5.638;2024-01-30T05:01:35;49.20;;;20.58;;
51566;SDS011;37657;53.182;5.638;2024-01-30T05:04:00;20.48;;;18.45;;
51566;SDS011;37657;53.182;5.638;2024-01-30T05:06:27;20.08;;;16.90;;
51566;SDS011;37657;53.182;5.638;2024-01-30T05:08:53;33.92;;;20.98;;
51566;SDS011;37657;53.182;5.638;2024-01-30T05:11:18;21.88;;;18.92;;
51566;SDS011;37657;53.182;5.638;2024-01-30T05:13:44;19.92;;;17.92;;
51566;SDS011;37657;53.182;5.638;2024-01-30T05:16:10;31.45;;;19.20;;
51566;SDS011;37657;53.182;5.638;2024-01-30T05:18:35;19.73;;;17.35;;
51566;SDS011;37657;53.182;5.638;2024-01-30T05:21:02;19.20;;;17.33;;
51566;SDS011;37657;53.182;5.638;2024-01-30T05:23:28;21.70;;;19.55;;
51566;SDS011;37657;53.182;5.638;2024-01-30T05:25:54;22.25;;;19.92;;
51566;SDS011;37657;53.182;5.638;2024-01-30T05:28:19;23.75;;;19.17;;
51566;SDS011;37657;53.182;5.638;2024-01-30T05:30:45;28.35;;;21.27;;
51566;SDS011;37657;53.182;5.638;2024-01-30T05:33:10;24.58;;;18.60;;
51566;SDS011;37657;53.182;5.638;2024-01-30T05:35:37;19.42;;;17.52;;
51566;SDS011;37657;53.182;5.638;2024-01-30T05:38:03;22.17;;;20.08;;
51566;SDS011;37657;53.182;5.638;2024-01-30T05:40:29;21.70;;;16.90;;
51566;SDS011;37657;53.182;5.638;2024-01-30T05:42:55;20.25;;;18.17;;
51566;SDS011;37657;53.182;5.638;2024-01-30T05:45:21;24.05;;;19.02;;
51566;SDS011;37657;53.182;5.638;2024-01-30T05:47:48;23.80;;;20.30;;
51566;SDS011;37657;53.182;5.638;2024-01-30T05:50:13;24.00;;;18.48;;
51566;SDS011;37657;53.182;5.638;2024-01-30T05:52:39;21.45;;;19.63;;
51566;SDS011;37657;53.182;5.638;2024-01-30T05:55:05;22.60;;;20.42;;
51566;SDS011;37657;53.182;5.638;2024-01-30T05:57:31;21.98;;;19.65;;
51566;SDS011;37657;53.182;5.638;2024-01-30T05:59:56;21.02;;;18.98;;
51566;SDS011;37657;53.182;5.638;2024-01-30T06:02:22;20.50;;;17.95;;
51566;SDS011;37657;53.182;5.638;2024-01-30T06:04:48;19.52;;;17.60;;
51566;SDS011;37657;53.182;5.638;2024-01-30T06:07:13;20.40;;;17.30;;
51566;SDS011;37657;53.182;5.638;2024-01-30T06:09:39;31.52;;;17.63;;
51566;SDS011;37657;53.182;5.638;2024-01-30T06:12:05;20.27;;;15.88;;
51566;SDS011;37657;53.182;5.638;2024-01-30T06:14:31;21.55;;;17.35;;
51566;SDS011;37657;53.182;5.638;2024-01-30T06:16:57;20.48;;;18.42;;
51566;SDS011;37657;53.182;5.638;2024-01-30T06:19:24;17.60;;;15.68;;
51566;SDS011;37657;53.182;5.638;2024-01-30T06:21:49;22.05;;;16.25;;
51566;SDS011;37657;53.182;5.638;2024-01-30T06:24:16;36.10;;;18.55;;
51566;SDS011;37657;53.182;5.638;2024-01-30T06:26:42;19.67;;;17.60;;
51566;SDS011;37657;53.182;5.638;2024-01-30T06:29:07;21.08;;;17.83;;
51566;SDS011;37657;53.182;5.638;2024-01-30T06:31:34;19.27;;;15.68;;
51566;SDS011;37657;53.182;5.638;2024-01-30T06:34:05;20.17;;;18.17;;
51566;SDS011;37657;53.182;5.638;2024-01-30T06:36:30;19.83;;;17.77;;
51566;SDS011;37657;53.182;5.638;2024-01-30T06:38:56;19.13;;;16.92;;
51566;SDS011;37657;53.182;5.638;2024-01-30T06:41:21;21.67;;;18.05;;
51566;SDS011;37657;53.182;5.638;2024-01-30T06:43:47;17.65;;;15.80;;
51566;SDS011;37657;53.182;5.638;2024-01-30T06:46:13;17.90;;;16.15;;
51566;SDS011;37657;53.182;5.638;2024-01-30T06:48:39;18.02;;;16.02;;
51566;SDS011;37657;53.182;5.638;2024-01-30T06:51:05;18.58;;;16.48;;
51566;SDS011;37657;53.182;5.638;2024-01-30T06:53:31;19.23;;;15.93;;
51566;SDS011;37657;53.182;5.638;2024-01-30T06:55:57;19.48;;;16.27;;
51566;SDS011;37657;53.182;5.638;2024-01-30T06:58:22;18.17;;;15.30;;
51566;SDS011;37657;53.182;5.638;2024-01-30T07:00:48;22.25;;;16.38;;
51566;SDS011;37657;53.182;5.638;2024-01-30T07:03:13;20.50;;;17.60;;
51566;SDS011;37657;53.182;5.638;2024-01-30T07:05:39;25.80;;;17.23;;
51566;SDS011;37657;53.182;5.638;2024-01-30T07:08:05;17.67;;;15.13;;
51566;SDS011;37657;53.182;5.638;2024-01-30T07:10:30;20.73;;;18.30;;
51566;SDS011;37657;53.182;5.638;2024-01-30T07:12:56;17.02;;;14.13;;
51566;SDS011;37657;53.182;5.638;2024-01-30T07:15:22;18.33;;;16.50;;
51566;SDS011;37657;53.182;5.638;2024-01-30T07:17:47;18.15;;;16.25;;
51566;SDS011;37657;53.182;5.638;2024-01-30T07:20:13;18.20;;;16.33;;
51566;SDS011;37657;53.182;5.638;2024-01-30T07:22:39;18.63;;;16.90;;
51566;SDS011;37657;53.182;5.638;2024-01-30T07:25:06;19.23;;;17.17;;
51566;SDS011;37657;53.182;5.638;2024-01-30T07:27:32;24.60;;;16.75;;
51566;SDS011;37657;53.182;5.638;2024-01-30T07:29:57;17.33;;;15.30;;
51566;SDS011;37657;53.182;5.638;2024-01-30T07:32:23;19.77;;;17.88;;
51566;SDS011;37657;53.182;5.638;2024-01-30T07:34:48;18.85;;;15.43;;
51566;SDS011;37657;53.182;5.638;2024-01-30T07:37:14;15.52;;;13.07;;
51566;SDS011;37657;53.182;5.638;2024-01-30T07:39:41;16.90;;;15.18;;
51566;SDS011;37657;53.182;5.638;2024-01-30T07:42:07;15.77;;;14.25;;
51566;SDS011;37657;53.182;5.638;2024-01-30T07:44:33;18.92;;;16.95;;
51566;SDS011;37657;53.182;5.638;2024-01-30T07:46:59;21.70;;;16.40;;
51566;SDS011;37657;53.182;5.638;2024-01-30T07:49:25;20.33;;;16.75;;
51566;SDS011;37657;53.182;5.638;2024-01-30T07:51:50;18.38;;;16.45;;
51566;SDS011;37657;53.182;5.638;2024-01-30T07:54:16;18.50;;;15.10;;
51566;SDS011;37657;53.182;5.638;2024-01-30T07:56:42;17.55;;;15.70;;
51566;SDS011;37657;53.182;5.638;2024-01-30T07:59:11;20.25;;;15.43;;
51566;SDS011;37657;53.182;5.638;2024-01-30T08:01:37;15.77;;;14.10;;
51566;SDS011;37657;53.182;5.638;2024-01-30T08:04:03;23.77;;;16.75;;
51566;SDS011;37657;53.182;5.638;2024-01-30T08:06:29;16.83;;;15.10;;
51566;SDS011;37657;53.182;5.638;2024-01-30T08:08:54;17.52;;;14.13;;
51566;SDS011;37657;53.182;5.638;2024-01-30T08:11:20;16.15;;;14.48;;
51566;SDS011;37657;53.182;5.638;2024-01-30T08:13:51;21.55;;;15.40;;
51566;SDS011;37657;53.182;5.638;2024-01-30T08:16:20;17.13;;;14.63;;
51566;SDS011;37657;53.182;5.638;2024-01-30T08:18:46;19.30;;;14.85;;
51566;SDS011;37657;53.182;5.638;2024-01-30T08:21:11;21.95;;;15.07;;
51566;SDS011;37657;53.182;5.638;2024-01-30T08:23:40;17.38;;;15.45;;
51566;SDS011;37657;53.182;5.638;2024-01-30T08:26:06;20.67;;;18.50;;
51566;SDS011;37657;53.182;5.638;2024-01-30T08:28:32;21.65;;;17.30;;
51566;SDS011;37657;53.182;5.638;2024-01-30T08:30:57;18.92;;;16.83;;
51566;SDS011;37657;53.182;5.638;2024-01-30T08:33:23;15.63;;;14.20;;
51566;SDS011;37657;53.182;5.638;2024-01-30T08:35:49;16.23;;;14.27;;
51566;SDS011;37657;53.182;5.638;2024-01-30T08:38:14;18.58;;;15.95;;
51566;SDS011;37657;53.182;5.638;2024-01-30T08:40:40;18.92;;;17.13;;
51566;SDS011;37657;53.182;5.638;2024-01-30T08:43:05;19.00;;;15.15;;
51566;SDS011;37657;53.182;5.638;2024-01-30T08:45:31;15.07;;;13.38;;
51566;SDS011;37657;53.182;5.638;2024-01-30T08:47:57;21.58;;;16.15;;
51566;SDS011;37657;53.182;5.638;2024-01-30T08:50:22;24.80;;;16.23;;
51566;SDS011;37657;53.182;5.638;2024-01-30T08:52:48;17.88;;;13.93;;
51566;SDS011;37657;53.182;5.638;2024-01-30T08:55:13;18.67;;;16.98;;
51566;SDS011;37657;53.182;5.638;2024-01-30T08:57:39;15.02;;;12.75;;
51566;SDS011;37657;53.182;5.638;2024-01-30T09:00:05;17.10;;;15.45;;
51566;SDS011;37657;53.182;5.638;2024-01-30T09:02:32;17.92;;;13.68;;
51566;SDS011;37657;53.182;5.638;2024-01-30T09:04:58;14.93;;;13.38;;
51566;SDS011;37657;53.182;5.638;2024-01-30T09:07:23;22.58;;;16.02;;
51566;SDS011;37657;53.182;5.638;2024-01-30T09:09:49;15.10;;;13.38;;
51566;SDS011;37657;53.182;5.638;2024-01-30T09:12:14;16.00;;;14.52;;
51566;SDS011;37657;53.182;5.638;2024-01-30T09:14:40;14.98;;;13.48;;
51566;SDS011;37657;53.182;5.638;2024-01-30T09:17:06;14.35;;;12.95;;
51566;SDS011;37657;53.182;5.638;2024-01-30T09:19:32;18.20;;;14.57;;
51566;SDS011;37657;53.182;5.638;2024-01-30T09:21:58;14.52;;;13.10;;
51566;SDS011;37657;53.182;5.638;2024-01-30T09:24:24;17.83;;;16.10;;
51566;SDS011;37657;53.182;5.638;2024-01-30T09:26:51;29.88;;;15.93;;
51566;SDS011;37657;53.182;5.638;2024-01-30T09:29:17;20.60;;;14.48;;
51566;SDS011;37657;53.182;5.638;2024-01-30T09:31:43;17.05;;;12.98;;
51566;SDS011;37657;53.182;5.638;2024-01-30T09:34:10;14.50;;;12.95;;
51566;SDS011;37657;53.182;5.638;2024-01-30T09:36:35;17.02;;;12.38;;
51566;SDS011;37657;53.182;5.638;2024-01-30T09:39:01;18.70;;;14.13;;
51566;SDS011;37657;53.182;5.638;2024-01-30T09:41:27;15.63;;;14.18;;
51566;SDS011;37657;53.182;5.638;2024-01-30T09:43:54;19.55;;;15.10;;
51566;SDS011;37657;53.182;5.638;2024-01-30T09:46:22;18.17;;;15.00;;
51566;SDS011;37657;53.182;5.638;2024-01-30T09:48:52;17.40;;;13.25;;
51566;SDS011;37657;53.182;5.638;2024-01-30T09:51:20;16.08;;;13.27;;
51566;SDS011;37657;53.182;5.638;2024-01-30T09:53:47;14.15;;;12.40;;
51566;SDS011;37657;53.182;5.638;2024-01-30T09:56:14;14.02;;;12.57;;
51566;SDS011;37657;53.182;5.638;2024-01-30T09:58:39;12.85;;;11.18;;
51566;SDS011;37657;53.182;5.638;2024-01-30T10:01:05;15.52;;;12.98;;
51566;SDS011;37657;53.182;5.638;2024-01-30T10:03:31;12.25;;;10.98;;
51566;SDS011;37657;53.182;5.638;2024-01-30T10:05:57;15.25;;;12.35;;
51566;SDS011;37657;53.182;5.638;2024-01-30T10:08:23;14.23;;;11.90;;
51566;SDS011;37657;53.182;5.638;2024-01-30T10:10:49;17.13;;;10.05;;
51566;SDS011;37657;53.182;5.638;2024-01-30T10:13:15;14.90;;;7.50;;
51566;SDS011;37657;53.182;5.638;2024-01-30T10:15:41;13.50;;;9.07;;
51566;SDS011;37657;53.182;5.638;2024-01-30T10:18:07;14.73;;;7.35;;
51566;SDS011;37657;53.182;5.638;2024-01-30T10:20:35;12.27;;;7.65;;
51566;SDS011;37657;53.182;5.638;2024-01-30T10:23:01;9.30;;;7.00;;
51566;SDS011;37657;53.182;5.638;2024-01-30T10:25:27;8.90;;;5.72;;
51566;SDS011;37657;53.182;5.638;2024-01-30T10:27:53;15.45;;;6.28;;
51566;SDS011;37657;53.182;5.638;2024-01-30T10:30:24;11.55;;;5.60;;
51566;SDS011;37657;53.182;5.638;2024-01-30T10:32:50;18.35;;;6.15;;
51566;SDS011;37657;53.182;5.638;2024-01-30T10:35:16;10.43;;;4.70;;
51566;SDS011;37657;53.182;5.638;2024-01-30T10:37:48;8.02;;;4.82;;
51566;SDS011;37657;53.182;5.638;2024-01-30T10:40:14;11.90;;;5.78;;
51566;SDS011;37657;53.182;5.638;2024-01-30T10:42:42;19.63;;;5.63;;
51566;SDS011;37657;53.182;5.638;2024-01-30T10:45:08;14.57;;;5.38;;
51566;SDS011;37657;53.182;5.638;2024-01-30T10:47:42;8.63;;;4.82;;
51566;SDS011;37657;53.182;5.638;2024-01-30T10:50:09;13.90;;;6.07;;
51566;SDS011;37657;53.182;5.638;2024-01-30T10:52:35;5.38;;;3.90;;
51566;SDS011;37657;53.182;5.638;2024-01-30T10:55:01;7.22;;;4.15;;
51566;SDS011;37657;53.182;5.638;2024-01-30T10:57:30;10.15;;;4.82;;
51566;SDS011;37657;53.182;5.638;2024-01-30T10:59:58;6.45;;;3.92;;
51566;SDS011;37657;53.182;5.638;2024-01-30T11:02:26;7.20;;;4.13;;
51566;SDS011;37657;53.182;5.638;2024-01-30T11:04:59;8.45;;;3.88;;
51566;SDS011;37657;53.182;5.638;2024-01-30T11:07:26;6.55;;;3.47;;
51566;SDS011;37657;53.182;5.638;2024-01-30T11:09:53;7.47;;;3.83;;
51566;SDS011;37657;53.182;5.638;2024-01-30T11:12:28;8.07;;;3.70;;
51566;SDS011;37657;53.182;5.638;2024-01-30T11:15:13;7.00;;;3.08;;
51566;SDS011;37657;53.182;5.638;2024-01-30T11:20:28;8.07;;;3.20;;
51566;SDS011;37657;53.182;5.638;2024-01-30T11:22:58;8.20;;;3.67;;
51566;SDS011;37657;53.182;5.638;2024-01-30T11:25:25;7.07;;;4.03;;
51566;SDS011;37657;53.182;5.638;2024-01-30T11:27:51;5.05;;;3.33;;
51566;SDS011;37657;53.182;5.638;2024-01-30T11:30:22;6.75;;;3.17;;
51566;SDS011;37657;53.182;5.638;2024-01-30T11:33:05;7.53;;;4.07;;
51566;SDS011;37657;53.182;5.638;2024-01-30T11:35:32;4.22;;;2.67;;
51566;SDS011;37657;53.182;5.638;2024-01-30T11:37:59;4.10;;;2.83;;
51566;SDS011;37657;53.182;5.638;2024-01-30T11:40:29;8.30;;;3.15;;
51566;SDS011;37657;53.182;5.638;2024-01-30T11:42:56;4.00;;;2.33;;
51566;SDS011;37657;53.182;5.638;2024-01-30T11:45:23;13.68;;;3.67;;
51566;SDS011;37657;53.182;5.638;2024-01-30T11:47:49;3.50;;;2.50;;
51566;SDS011;37657;53.182;5.638;2024-01-30T11:50:14;4.43;;;2.42;;
51566;SDS011;37657;53.182;5.638;2024-01-30T11:52:40;21.50;;;2.88;;
51566;SDS011;37657;53.182;5.638;2024-01-30T11:55:07;3.75;;;2.17;;
51566;SDS011;37657;53.182;5.638;2024-01-30T11:57:34;6.00;;;2.80;;
51566;SDS011;37657;53.182;5.638;2024-01-30T12:00:05;3.70;;;2.28;;
51566;SDS011;37657;53.182;5.638;2024-01-30T12:02:35;6.05;;;2.25;;
51566;SDS011;37657;53.182;5.638;2024-01-30T12:05:08;9.38;;;3.15;;
51566;SDS011;37657;53.182;5.638;2024-01-30T12:07:36;4.43;;;2.57;;
51566;SDS011;37657;53.182;5.638;2024-01-30T12:10:02;9.93;;;3.47;;
51566;SDS011;37657;53.182;5.638;2024-01-30T12:12:28;4.82;;;3.15;;
51566;SDS011;37657;53.182;5.638;2024-01-30T12:14:55;6.13;;;2.50;;
51566;SDS011;37657;53.182;5.638;2024-01-30T12:17:28;7.22;;;2.85;;
51566;SDS011;37657;53.182;5.638;2024-01-30T12:22:42;7.38;;;3.25;;
51566;SDS011;37657;53.182;5.638;2024-01-30T12:25:12;5.90;;;2.42;;
51566;SDS011;37657;53.182;5.638;2024-01-30T12:27:39;4.15;;;2.28;;
51566;SDS011;37657;53.182;5.638;2024-01-30T12:30:07;5.00;;;2.50;;
51566;SDS011;37657;53.182;5.638;2024-01-30T12:32:43;4.78;;;2.63;;
51566;SDS011;37657;53.182;5.638;2024-01-30T12:35:13;3.92;;;2.30;;
51566;SDS011;37657;53.182;5.638;2024-01-30T12:37:39;3.90;;;1.95;;
51566;SDS011;37657;53.182;5.638;2024-01-30T12:40:07;5.78;;;2.10;;
51566;SDS011;37657;53.182;5.638;2024-01-30T12:42:33;9.65;;;3.25;;
51566;SDS011;37657;53.182;5.638;2024-01-30T12:44:59;8.55;;;2.90;;
51566;SDS011;37657;53.182;5.638;2024-01-30T12:47:24;4.18;;;2.35;;
51566;SDS011;37657;53.182;5.638;2024-01-30T12:49:50;5.88;;;2.42;;
51566;SDS011;37657;53.182;5.638;2024-01-30T12:52:19;3.28;;;2.20;;
51566;SDS011;37657;53.182;5.638;2024-01-30T12:54:46;4.18;;;2.08;;
51566;SDS011;37657;53.182;5.638;2024-01-30T12:57:12;4.85;;;2.13;;
51566;SDS011;37657;53.182;5.638;2024-01-30T12:59:37;5.88;;;2.83;;
51566;SDS011;37657;53.182;5.638;2024-01-30T13:02:04;6.97;;;2.65;;
51566;SDS011;37657;53.182;5.638;2024-01-30T13:04:30;6.20;;;2.42;;
51566;SDS011;37657;53.182;5.638;2024-01-30T13:06:55;4.50;;;2.30;;
51566;SDS011;37657;53.182;5.638;2024-01-30T13:09:22;3.10;;;2.00;;
51566;SDS011;37657;53.182;5.638;2024-01-30T13:11:47;2.17;;;1.75;;
51566;SDS011;37657;53.182;5.638;2024-01-30T13:14:14;2.50;;;1.83;;
51566;SDS011;37657;53.182;5.638;2024-01-30T13:16:39;5.32;;;3.10;;
51566;SDS011;37657;53.182;5.638;2024-01-30T13:19:05;5.07;;;2.38;;
51566;SDS011;37657;53.182;5.638;2024-01-30T13:21:31;3.90;;;2.00;;
51566;SDS011;37657;53.182;5.638;2024-01-30T13:23:56;3.25;;;1.58;;
51566;SDS011;37657;53.182;5.638;2024-01-30T13:26:22;3.80;;;2.28;;
51566;SDS011;37657;53.182;5.638;2024-01-30T13:28:47;7.65;;;3.13;;
51566;SDS011;37657;53.182;5.638;2024-01-30T13:31:16;5.38;;;2.92;;
51566;SDS011;37657;53.182;5.638;2024-01-30T13:33:42;4.22;;;1.80;;
51566;SDS011;37657;53.182;5.638;2024-01-30T13:36:09;4.80;;;2.17;;
51566;SDS011;37657;53.182;5.638;2024-01-30T13:38:36;5.50;;;1.70;;
51566;SDS011;37657;53.182;5.638;2024-01-30T13:41:01;5.43;;;2.75;;
51566;SDS011;37657;53.182;5.638;2024-01-30T13:43:27;4.60;;;2.30;;
51566;SDS011;37657;53.182;5.638;2024-01-30T13:45:53;4.57;;;2.42;;
51566;SDS011;37657;53.182;5.638;2024-01-30T13:48:19;3.42;;;2.15;;
51566;SDS011;37657;53.182;5.638;2024-01-30T13:50:44;5.07;;;1.98;;
51566;SDS011;37657;53.182;5.638;2024-01-30T13:53:11;4.20;;;2.33;;
51566;SDS011;37657;53.182;5.638;2024-01-30T13:55:37;2.30;;;1.75;;
51566;SDS011;37657;53.182;5.638;2024-01-30T13:58:04;2.15;;;1.77;;
51566;SDS011;37657;53.182;5.638;2024-01-30T14:00:30;12.13;;;3.92;;
51566;SDS011;37657;53.182;5.638;2024-01-30T14:02:55;6.97;;;3.53;;
51566;SDS011;37657;53.182;5.638;2024-01-30T14:05:22;4.18;;;2.38;;
51566;SDS011;37657;53.182;5.638;2024-01-30T14:07:48;5.00;;;3.05;;
51566;SDS011;37657;53.182;5.638;2024-01-30T14:10:17;4.57;;;2.40;;
51566;SDS011;37657;53.182;5.638;2024-01-30T14:12:43;5.60;;;2.50;;
51566;SDS011;37657;53.182;5.638;2024-01-30T14:15:09;4.80;;;2.25;;
51566;SDS011;37657;53.182;5.638;2024-01-30T14:17:36;7.00;;;2.42;;
51566;SDS011;37657;53.182;5.638;2024-01-30T14:20:05;7.82;;;2.53;;
51566;SDS011;37657;53.182;5.638;2024-01-30T14:22:32;4.82;;;3.53;;
51566;SDS011;37657;53.182;5.638;2024-01-30T14:24:58;10.20;;;3.13;;
51566;SDS011;37657;53.182;5.638;2024-01-30T14:27:24;4.63;;;2.40;;
51566;SDS011;37657;53.182;5.638;2024-01-30T14:29:50;3.38;;;2.47;;